Time;durP1;ratioP1;P1;durP2;ratioP2;P2;SDS_P1;SDS_P2;PMS_P1;PMS_P2;Temp;Humidity;BMP_temperature;BMP_pressure;BME280_temperature;BME280_humidity;BME280_pressure;Samples;Min_cycle;Max_cycle;Signal;HPM_P1;HPM_P2
2022/08/14 00:01:06;;;;;;;23.48;16.33;;;22.90;79.00;;;;;;4953694;29;20391;-44
2022/08/14 00:03:31;;;;;;;27.20;16.77;;;22.90;79.20;;;;;;4953486;28;20086;-44
2022/08/14 00:05:59;;;;;;;26.05;16.17;;;22.90;79.60;;;;;;4952548;29;20078;-47
2022/08/14 00:08:25;;;;;;;23.83;16.95;;;22.80;79.80;;;;;;4953006;29;20130;-43
2022/08/14 00:10:51;;;;;;;24.20;17.80;;;22.80;80.10;;;;;;4953755;29;20454;-46
2022/08/14 00:13:19;;;;;;;25.15;15.70;;;22.80;80.50;;;;;;4953147;28;20508;-47
2022/08/14 00:15:48;;;;;;;25.83;15.25;;;22.70;80.50;;;;;;4953639;29;20024;-45
2022/08/14 00:18:16;;;;;;;25.10;14.45;;;22.70;80.90;;;;;;4953719;28;20062;-43
2022/08/14 00:20:42;;;;;;;15.82;11.05;;;22.60;81.50;;;;;;4952982;28;20110;-42
2022/08/14 00:23:09;;;;;;;15.30;9.13;;;22.60;81.60;;;;;;4951983;28;20122;-46
2022/08/14 00:25:35;;;;;;;16.42;10.00;;;22.60;81.80;;;;;;4952240;29;20404;-43
2022/08/14 00:28:01;;;;;;;9.95;8.27;;;22.60;82.10;;;;;;4953611;29;20023;-43
2022/08/14 00:30:27;;;;;;;12.48;9.20;;;22.50;82.30;;;;;;4953492;28;20038;-43
2022/08/14 00:32:53;;;;;;;13.68;9.15;;;22.50;82.60;;;;;;4952965;28;20035;-44
2022/08/14 00:35:18;;;;;;;12.32;8.65;;;22.50;83.00;;;;;;4954040;29;20528;-44
2022/08/14 00:37:45;;;;;;;9.13;7.78;;;22.40;83.20;;;;;;4953860;29;20397;-46
2022/08/14 00:40:13;;;;;;;8.25;7.15;;;22.40;83.60;;;;;;4954209;28;20399;-45
2022/08/14 00:42:39;;;;;;;15.27;7.72;;;22.40;84.20;;;;;;4953302;28;20063;-45
2022/08/14 00:45:07;;;;;;;10.95;6.93;;;22.30;84.60;;;;;;4953832;28;20027;-45
2022/08/14 00:47:34;;;;;;;9.60;6.70;;;22.30;85.10;;;;;;4953264;28;20074;-49
2022/08/14 00:50:01;;;;;;;6.85;6.13;;;22.20;85.40;;;;;;4953244;28;20086;-42
2022/08/14 00:52:27;;;;;;;10.60;7.25;;;22.20;85.80;;;;;;4952902;28;20284;-43
2022/08/14 00:54:54;;;;;;;6.13;5.53;;;22.20;86.20;;;;;;4953288;28;20119;-45
2022/08/14 00:57:21;;;;;;;9.15;6.70;;;22.20;86.60;;;;;;4953722;28;20027;-43
2022/08/14 00:59:47;;;;;;;5.50;5.05;;;22.20;87.10;;;;;;4953898;28;20055;-48
2022/08/14 01:02:17;;;;;;;7.40;6.15;;;22.20;87.50;;;;;;4952700;28;20027;-51
2022/08/14 01:04:44;;;;;;;7.18;6.20;;;22.10;87.90;;;;;;4953133;28;20043;-46
2022/08/14 01:07:10;;;;;;;6.80;6.05;;;22.20;88.20;;;;;;4953139;28;20440;-46
2022/08/14 01:09:36;;;;;;;8.30;5.97;;;22.10;88.70;;;;;;4952495;28;20027;-46
2022/08/14 01:12:04;;;;;;;6.18;5.68;;;22.00;89.00;;;;;;4952603;28;20031;-43
2022/08/14 01:14:30;;;;;;;7.32;6.30;;;22.00;89.50;;;;;;4952999;28;20027;-44
2022/08/14 01:16:55;;;;;;;9.48;5.70;;;22.10;90.00;;;;;;4952978;28;20023;-44
2022/08/14 01:22:11;;;;;;;7.05;5.72;;;22.00;90.50;;;;;;4942940;28;20437;-46
2022/08/14 01:24:36;;;;;;;6.93;5.65;;;21.90;90.70;;;;;;4952965;29;20031;-51
2022/08/14 01:27:04;;;;;;;7.38;5.97;;;22.00;90.90;;;;;;4951882;29;20118;-44
2022/08/14 01:29:36;;;;;;;7.65;6.65;;;21.90;91.10;;;;;;4952961;28;20065;-43
2022/08/14 01:32:03;;;;;;;6.45;5.80;;;21.90;91.50;;;;;;4953979;28;20102;-45
2022/08/14 01:34:31;;;;;;;7.25;5.75;;;22.00;91.80;;;;;;4956364;28;20409;-44
2022/08/14 01:36:58;;;;;;;6.72;5.70;;;21.90;92.00;;;;;;4956481;28;20023;-44
2022/08/14 01:39:24;;;;;;;7.20;6.53;;;21.90;92.40;;;;;;4956408;28;20069;-45
2022/08/14 01:41:59;;;;;;;7.40;6.10;;;21.90;92.70;;;;;;4954995;28;20473;-47
2022/08/14 01:44:29;;;;;;;9.23;6.20;;;21.90;92.90;;;;;;4955208;29;20035;-45
2022/08/14 01:46:58;;;;;;;7.60;5.72;;;21.90;93.20;;;;;;4956334;28;20488;-47
2022/08/14 01:49:25;;;;;;;7.22;6.53;;;21.80;93.50;;;;;;4956347;28;20455;-45
2022/08/14 01:51:55;;;;;;;9.50;5.63;;;21.80;93.80;;;;;;4956015;28;20340;-49
2022/08/14 01:54:22;;;;;;;6.32;5.72;;;21.80;94.10;;;;;;4956165;28;20499;-45
2022/08/14 01:56:56;;;;;;;6.03;5.40;;;21.80;94.50;;;;;;4956001;28;20035;-45
2022/08/14 01:59:25;;;;;;;6.53;5.97;;;21.80;94.90;;;;;;4955993;28;20031;-43
2022/08/14 02:01:53;;;;;;;6.95;6.35;;;21.70;95.20;;;;;;4955548;28;20098;-41
2022/08/14 02:04:20;;;;;;;7.72;6.30;;;21.70;95.60;;;;;;4955555;29;20031;-43
2022/08/14 02:06:49;;;;;;;7.68;6.80;;;21.70;95.90;;;;;;4955896;28;20023;-43
2022/08/14 02:09:15;;;;;;;6.28;5.68;;;21.70;96.20;;;;;;4955527;28;20556;-45
2022/08/14 02:11:40;;;;;;;10.02;6.45;;;21.60;96.50;;;;;;4955639;28;20159;-44
2022/08/14 02:14:09;;;;;;;8.88;6.53;;;21.60;96.80;;;;;;4955422;29;20038;-42
2022/08/14 02:16:47;;;;;;;10.25;7.00;;;21.60;97.10;;;;;;4955971;28;20485;-42
2022/08/14 02:19:17;;;;;;;6.90;6.30;;;21.50;97.50;;;;;;4955600;28;20031;-44
2022/08/14 02:21:45;;;;;;;10.52;6.25;;;21.50;97.80;;;;;;4955582;28;20416;-45
2022/08/14 02:24:12;;;;;;;7.43;6.55;;;21.50;98.00;;;;;;4955359;28;20031;-43
2022/08/14 02:26:40;;;;;;;7.72;7.03;;;21.50;98.30;;;;;;4955224;29;20026;-41
2022/08/14 02:29:11;;;;;;;7.97;7.18;;;21.50;98.60;;;;;;4955307;28;20500;-47
2022/08/14 02:31:39;;;;;;;8.40;7.53;;;21.50;98.80;;;;;;4955245;28;20027;-44
2022/08/14 02:34:09;;;;;;;7.10;6.47;;;21.50;99.10;;;;;;4955182;28;20038;-43
2022/08/14 02:36:36;;;;;;;10.30;7.45;;;21.40;99.20;;;;;;4955375;28;20027;-42
2022/08/14 02:39:05;;;;;;;7.80;6.75;;;21.40;99.50;;;;;;4955425;28;20058;-43
2022/08/14 02:41:31;;;;;;;7.57;6.95;;;21.40;99.60;;;;;;4954719;28;20032;-47
2022/08/14 02:43:57;;;;;;;8.10;7.40;;;21.40;99.70;;;;;;4954095;28;20034;-46
2022/08/14 02:46:22;;;;;;;7.18;6.57;;;21.40;99.70;;;;;;4955683;28;20027;-38
2022/08/14 02:48:48;;;;;;;6.85;6.22;;;21.40;99.90;;;;;;4955191;28;20031;-46
2022/08/14 02:51:13;;;;;;;9.10;7.35;;;21.40;99.90;;;;;;4953627;29;20031;-48
2022/08/14 02:53:43;;;;;;;7.68;6.95;;;21.40;99.90;;;;;;4953368;29;20493;-43
2022/08/14 02:56:10;;;;;;;7.70;6.65;;;21.40;99.90;;;;;;4955099;28;20492;-45
2022/08/14 02:58:39;;;;;;;7.63;6.85;;;21.40;99.90;;;;;;4955103;28;20051;-45
2022/08/14 03:01:07;;;;;;;7.43;6.75;;;21.40;99.90;;;;;;4954860;28;20035;-47
2022/08/14 03:03:35;;;;;;;9.45;7.10;;;21.40;99.90;;;;;;4954497;28;20024;-49
2022/08/14 03:06:00;;;;;;;12.35;7.05;;;21.30;99.90;;;;;;4954753;28;20034;-42
2022/08/14 03:08:30;;;;;;;9.80;6.72;;;21.30;99.90;;;;;;4954140;28;20501;-42
2022/08/14 03:10:56;;;;;;;8.15;7.32;;;21.30;99.90;;;;;;4954625;28;20594;-48
2022/08/14 03:13:22;;;;;;;10.98;7.45;;;21.30;99.90;;;;;;4954270;28;20080;-46
2022/08/14 03:15:51;;;;;;;7.43;6.82;;;21.20;99.90;;;;;;4954646;29;20494;-45
2022/08/14 03:18:16;;;;;;;7.40;6.70;;;21.20;99.90;;;;;;4953291;29;20424;-41
2022/08/14 03:20:42;;;;;;;8.02;7.22;;;21.20;99.90;;;;;;4954334;29;20027;-44
2022/08/14 03:23:08;;;;;;;10.45;7.40;;;21.20;99.90;;;;;;4954140;28;20493;-43
2022/08/14 03:25:34;;;;;;;8.52;7.13;;;21.20;99.90;;;;;;4954492;28;20019;-43
2022/08/14 03:28:07;;;;;;;10.52;7.32;;;21.10;99.90;;;;;;4954413;28;20027;-43
2022/08/14 03:30:34;;;;;;;7.57;6.80;;;21.10;99.90;;;;;;4954455;28;20055;-45
2022/08/14 03:33:00;;;;;;;7.70;6.90;;;21.00;99.90;;;;;;4953862;28;20061;-46
2022/08/14 03:35:26;;;;;;;13.30;7.43;;;21.00;99.90;;;;;;4954477;28;20023;-45
2022/08/14 03:37:52;;;;;;;9.27;7.40;;;21.00;99.90;;;;;;4954892;28;20559;-43
2022/08/14 03:40:21;;;;;;;8.23;6.97;;;20.90;99.90;;;;;;4954729;29;20117;-46
2022/08/14 03:42:48;;;;;;;7.65;6.88;;;20.90;99.90;;;;;;4954363;28;20023;-45
2022/08/14 03:45:14;;;;;;;7.70;7.03;;;20.80;99.90;;;;;;4952807;29;20027;-51
2022/08/14 03:47:40;;;;;;;7.82;7.13;;;20.80;99.90;;;;;;4953964;28;20033;-49
2022/08/14 03:50:08;;;;;;;9.00;7.18;;;20.80;99.90;;;;;;4953947;28;20103;-47
2022/08/14 03:52:34;;;;;;;8.65;7.70;;;20.80;99.90;;;;;;4953670;28;20051;-46
2022/08/14 03:55:02;;;;;;;7.72;6.97;;;20.70;99.90;;;;;;4953877;28;20505;-43
2022/08/14 03:57:31;;;;;;;9.77;7.90;;;20.60;99.90;;;;;;4953921;28;20055;-46
2022/08/14 03:59:56;;;;;;;9.98;8.05;;;20.70;99.90;;;;;;4954159;28;20034;-44
2022/08/14 04:02:23;;;;;;;9.40;7.95;;;20.60;99.90;;;;;;4952084;28;20031;-41
2022/08/14 04:04:48;;;;;;;8.27;7.53;;;20.60;99.90;;;;;;4953713;28;20078;-44
2022/08/14 04:07:14;;;;;;;9.27;7.85;;;20.60;99.90;;;;;;4953814;28;20485;-44
2022/08/14 04:09:40;;;;;;;8.68;7.88;;;20.60;99.90;;;;;;4953343;28;20066;-43
2022/08/14 04:12:06;;;;;;;10.30;7.85;;;20.60;99.90;;;;;;4953114;28;20109;-39
2022/08/14 04:14:31;;;;;;;10.48;7.88;;;20.60;99.90;;;;;;4953562;29;20035;-39
2022/08/14 04:16:57;;;;;;;9.15;7.88;;;20.60;99.90;;;;;;4953640;29;20503;-45
2022/08/14 04:19:22;;;;;;;9.10;8.07;;;20.60;99.90;;;;;;4953566;29;20452;-46
2022/08/14 04:21:49;;;;;;;9.63;8.27;;;20.60;99.90;;;;;;4953456;28;20500;-43
2022/08/14 04:24:16;;;;;;;9.45;8.52;;;20.60;99.90;;;;;;4953387;28;20027;-46
2022/08/14 04:26:43;;;;;;;9.00;7.88;;;20.50;99.90;;;;;;4953660;28;20051;-48
2022/08/14 04:29:12;;;;;;;8.73;7.82;;;20.60;99.90;;;;;;4953693;28;20027;-46
2022/08/14 04:31:38;;;;;;;8.85;8.05;;;20.50;99.90;;;;;;4953367;28;20046;-48
2022/08/14 04:34:04;;;;;;;8.45;7.70;;;20.50;99.90;;;;;;4953387;28;20127;-44
2022/08/14 04:36:31;;;;;;;10.23;7.72;;;20.50;99.90;;;;;;4953445;28;20089;-45
2022/08/14 04:44:25;;;;;;;8.77;7.93;;;20.50;99.90;;;;;;4953443;29;20286;-43
2022/08/14 04:49:35;;;;;;;10.13;9.18;;;20.50;99.90;;;;;;4953299;29;20523;-39
2022/08/14 04:52:04;;;;;;;9.18;8.02;;;20.50;99.90;;;;;;4953037;28;20073;-44
2022/08/14 04:54:30;;;;;;;10.80;8.80;;;20.60;99.90;;;;;;4951206;28;20493;-47
2022/08/14 04:56:55;;;;;;;10.25;8.10;;;20.60;99.90;;;;;;4957081;28;20063;-44
2022/08/14 04:59:23;;;;;;;10.63;8.85;;;20.70;99.90;;;;;;4952410;29;20556;-44
2022/08/14 05:01:48;;;;;;;9.82;8.23;;;20.70;99.90;;;;;;4941009;28;20038;-47
2022/08/14 05:04:16;;;;;;;8.77;8.00;;;20.80;99.90;;;;;;4953605;29;20043;-43
2022/08/14 05:06:42;;;;;;;8.82;8.02;;;21.00;99.90;;;;;;4954968;28;20058;-43
2022/08/14 05:09:07;;;;;;;8.38;7.57;;;21.40;99.90;;;;;;4957057;29;20373;-47
2022/08/14 05:11:35;;;;;;;8.77;7.95;;;21.80;99.90;;;;;;4956794;28;20568;-41
2022/08/14 05:14:01;;;;;;;8.57;7.78;;;22.20;99.90;;;;;;4957129;28;20070;-45
2022/08/14 05:16:29;;;;;;;9.40;8.50;;;22.50;99.90;;;;;;4957205;28;20031;-43
2022/08/14 05:18:55;;;;;;;9.15;8.25;;;22.80;99.90;;;;;;4957068;28;20417;-44
2022/08/14 05:21:21;;;;;;;8.32;7.53;;;23.00;99.90;;;;;;4956676;28;20493;-48
2022/08/14 05:23:47;;;;;;;11.43;8.38;;;23.30;99.90;;;;;;4955041;29;20032;-44
2022/08/14 05:26:17;;;;;;;10.15;8.07;;;23.50;99.40;;;;;;4956754;29;20023;-44
2022/08/14 05:28:44;;;;;;;7.85;7.13;;;23.80;98.80;;;;;;4956584;28;20034;-44
2022/08/14 05:31:12;;;;;;;10.05;8.80;;;24.20;98.50;;;;;;4939048;28;20047;-43
2022/08/14 05:33:38;;;;;;;11.65;8.80;;;24.80;97.70;;;;;;4936988;29;20106;-45
2022/08/14 05:36:08;;;;;;;9.00;8.10;;;25.20;96.50;;;;;;4937326;29;20042;-44
2022/08/14 05:38:39;;;;;;;9.55;8.55;;;25.40;96.10;;;;;;4937377;29;20388;-43
2022/08/14 05:41:08;;;;;;;9.73;8.82;;;25.50;95.80;;;;;;4937209;29;20096;-49
2022/08/14 05:43:34;;;;;;;13.43;10.32;;;25.60;95.70;;;;;;4966106;23;20555;-47
2022/08/14 05:46:00;;;;;;;10.85;9.75;;;25.90;95.00;;;;;;4956057;29;20474;-49
2022/08/14 05:48:27;;;;;;;10.48;8.93;;;26.10;94.70;;;;;;4955193;29;20400;-46
2022/08/14 05:50:54;;;;;;;11.23;9.45;;;26.60;93.90;;;;;;4971778;28;20053;-49
2022/08/14 05:53:24;;;;;;;10.40;9.40;;;26.70;93.50;;;;;;4975002;28;20019;-48
2022/08/14 05:55:51;;;;;;;11.73;8.30;;;26.50;93.40;;;;;;4975613;28;20607;-48
2022/08/14 05:58:17;;;;;;;11.63;8.82;;;26.40;93.70;;;;;;4956949;28;20035;-48
2022/08/14 06:00:44;;;;;;;14.93;9.68;;;26.70;93.10;;;;;;4943394;28;20073;-46
2022/08/14 06:03:13;;;;;;;15.68;10.25;;;26.60;93.20;;;;;;4952035;28;20031;-43
2022/08/14 06:05:40;;;;;;;16.75;11.57;;;26.40;93.40;;;;;;4955888;28;20020;-52
2022/08/14 06:08:23;;;;;;;12.90;10.45;;;26.50;93.30;;;;;;4965686;28;20034;-49
2022/08/14 06:10:50;;;;;;;14.68;12.82;;;26.50;93.30;;;;;;4943467;28;20027;-49
2022/08/14 06:13:16;;;;;;;19.27;13.57;;;26.70;92.90;;;;;;4949501;28;20447;-47
2022/08/14 06:15:42;;;;;;;19.83;14.00;;;27.30;92.20;;;;;;4945143;29;20111;-46
2022/08/14 06:18:08;;;;;;;17.08;12.88;;;27.80;91.30;;;;;;4943383;29;20362;-49
2022/08/14 06:20:33;;;;;;;15.00;12.75;;;27.90;91.00;;;;;;4950693;28;20024;-49
2022/08/14 06:22:59;;;;;;;15.55;11.52;;;28.20;90.90;;;;;;4945370;29;20122;-52
2022/08/14 06:25:25;;;;;;;15.50;12.32;;;28.50;90.00;;;;;;4936461;29;20031;-46
2022/08/14 06:27:51;;;;;;;14.77;11.55;;;28.80;88.60;;;;;;4943845;28;20473;-53
2022/08/14 06:30:22;;;;;;;14.60;11.48;;;29.10;88.00;;;;;;4937727;29;20039;-51
2022/08/14 06:32:48;;;;;;;21.23;16.40;;;29.50;86.90;;;;;;4935851;29;20038;-49
2022/08/14 06:35:17;;;;;;;21.42;17.02;;;29.80;84.90;;;;;;4934905;29;20106;-48
2022/08/14 06:37:45;;;;;;;23.10;16.58;;;29.40;85.80;;;;;;4936524;29;20046;-49
2022/08/14 06:40:15;;;;;;;29.30;18.30;;;29.50;85.40;;;;;;4936024;29;20478;-46
2022/08/14 06:42:41;;;;;;;27.88;21.85;;;29.90;84.90;;;;;;4935433;29;20111;-50
2022/08/14 06:45:08;;;;;;;23.05;18.65;;;30.10;83.10;;;;;;4936000;29;20055;-48
2022/08/14 06:47:35;;;;;;;23.35;19.40;;;30.00;83.30;;;;;;4936005;29;20028;-46
2022/08/14 06:50:05;;;;;;;20.98;16.45;;;29.80;83.60;;;;;;4934771;29;20032;-53
2022/08/14 06:52:30;;;;;;;24.38;16.27;;;29.00;85.50;;;;;;4935790;29;20458;-51
2022/08/14 06:54:56;;;;;;;17.60;14.27;;;29.20;85.60;;;;;;4934511;29;20070;-49
2022/08/14 06:57:22;;;;;;;20.55;13.00;;;29.60;84.70;;;;;;4935846;29;20035;-49
2022/08/14 06:59:47;;;;;;;18.25;12.10;;;30.20;83.10;;;;;;4936000;29;20042;-52
2022/08/14 07:07:41;;;;;;;11.13;9.45;;;29.30;84.20;;;;;;4936005;29;20038;-52
2022/08/14 07:10:08;;;;;;;9.75;8.68;;;29.00;84.80;;;;;;4935487;29;20036;-47
2022/08/14 07:12:34;;;;;;;10.05;8.68;;;29.30;85.00;;;;;;4935381;29;20103;-48
2022/08/14 07:15:00;;;;;;;10.43;9.35;;;29.50;84.00;;;;;;4935368;29;20119;-47
2022/08/14 07:17:26;;;;;;;12.23;9.02;;;29.60;83.40;;;;;;4935619;29;20541;-47
2022/08/14 07:19:52;;;;;;;13.00;9.85;;;29.60;83.30;;;;;;4935470;29;20032;-47
2022/08/14 07:22:17;;;;;;;13.02;11.70;;;29.40;83.60;;;;;;4935104;29;20449;-47
2022/08/14 07:24:43;;;;;;;15.60;13.95;;;29.00;84.60;;;;;;4935226;29;20083;-49
2022/08/14 07:27:08;;;;;;;16.20;13.95;;;29.00;84.80;;;;;;4935532;29;20059;-47
2022/08/14 07:29:34;;;;;;;17.83;14.70;;;29.20;84.10;;;;;;4934940;29;20490;-46
2022/08/14 07:32:00;;;;;;;23.52;18.15;;;28.90;84.70;;;;;;4934843;29;20106;-50
2022/08/14 07:34:25;;;;;;;30.00;20.27;;;28.70;85.30;;;;;;4934792;29;20035;-49
2022/08/14 07:36:51;;;;;;;24.05;18.67;;;28.70;85.10;;;;;;4935083;29;20149;-53
2022/08/14 07:39:17;;;;;;;30.67;20.17;;;28.80;85.10;;;;;;4935013;29;20493;-44
2022/08/14 07:41:43;;;;;;;30.92;19.85;;;29.30;83.90;;;;;;4934736;29;20020;-51
2022/08/14 07:44:10;;;;;;;23.15;16.63;;;29.50;82.80;;;;;;4934671;29;20123;-49
2022/08/14 07:46:36;;;;;;;22.00;15.93;;;29.70;82.50;;;;;;4934825;29;20028;-50
2022/08/14 07:49:03;;;;;;;22.38;16.17;;;29.90;82.30;;;;;;4933655;29;20115;-49
2022/08/14 07:51:28;;;;;;;19.00;11.15;;;30.40;80.50;;;;;;4934843;29;20382;-47
2022/08/14 07:53:54;;;;;;;15.98;9.07;;;30.30;80.10;;;;;;4934521;29;20034;-47
2022/08/14 07:56:19;;;;;;;13.95;9.77;;;30.60;79.50;;;;;;4934739;29;20031;-47
2022/08/14 07:58:45;;;;;;;13.80;10.02;;;30.90;78.50;;;;;;4939469;28;20106;-48
2022/08/14 08:01:12;;;;;;;12.45;9.07;;;30.90;78.10;;;;;;4947312;28;20024;-49
2022/08/14 08:03:41;;;;;;;10.68;8.52;;;31.10;78.00;;;;;;4942111;29;20045;-48
2022/08/14 08:06:07;;;;;;;10.65;9.38;;;31.40;77.20;;;;;;4937881;28;20034;-48
2022/08/14 08:08:33;;;;;;;14.80;10.13;;;31.60;76.60;;;;;;4935014;29;20119;-47
2022/08/14 08:11:01;;;;;;;14.38;9.18;;;31.50;76.30;;;;;;4946795;29;20458;-47
2022/08/14 08:13:28;;;;;;;10.63;7.50;;;31.80;76.30;;;;;;4939169;29;20095;-45
2022/08/14 08:15:56;;;;;;;7.45;6.75;;;32.40;76.00;;;;;;4941748;29;20098;-49
2022/08/14 08:18:23;;;;;;;9.20;5.85;;;33.10;73.60;;;;;;4938397;29;20023;-48
2022/08/14 08:20:51;;;;;;;8.65;7.43;;;32.90;72.90;;;;;;4936831;29;20111;-48
2022/08/14 08:23:19;;;;;;;10.50;7.03;;;33.40;72.00;;;;;;4953222;28;20094;-50
2022/08/14 08:25:47;;;;;;;6.65;6.05;;;33.30;71.70;;;;;;4953831;28;20037;-49
2022/08/14 08:28:17;;;;;;;9.88;5.68;;;33.40;71.10;;;;;;4953724;28;20015;-49
2022/08/14 08:30:50;;;;;;;8.48;7.40;;;33.40;71.30;;;;;;4953649;28;20030;-48
2022/08/14 08:33:20;;;;;;;9.52;8.52;;;33.50;70.90;;;;;;4948414;28;20110;-55
2022/08/14 08:35:47;;;;;;;16.85;12.50;;;33.70;70.00;;;;;;4934400;29;20066;-51
2022/08/14 08:38:16;;;;;;;21.02;14.60;;;33.60;70.10;;;;;;4934534;29;20028;-46
2022/08/14 08:40:44;;;;;;;17.90;13.85;;;33.60;70.60;;;;;;4933966;29;20110;-49
2022/08/14 08:43:21;;;;;;;17.15;13.25;;;34.00;69.60;;;;;;4961397;28;20122;-51
2022/08/14 08:46:05;;;;;;;20.42;14.82;;;34.10;68.80;;;;;;4971140;28;20027;-49
2022/08/14 08:48:43;;;;;;;23.42;15.27;;;34.20;69.00;;;;;;4972917;28;20484;-52
2022/08/14 08:51:18;;;;;;;17.27;13.95;;;34.00;68.40;;;;;;4970943;28;20034;-47
2022/08/14 08:53:43;;;;;;;32.00;19.85;;;33.30;69.50;;;;;;4945406;29;20027;-50
2022/08/14 08:56:09;;;;;;;19.60;16.15;;;33.50;68.70;;;;;;4934390;29;20319;-49
2022/08/14 08:58:36;;;;;;;21.60;13.05;;;33.30;68.80;;;;;;4938557;29;20489;-49
2022/08/14 09:01:02;;;;;;;18.15;12.27;;;33.20;68.90;;;;;;4938184;29;20062;-43
2022/08/14 09:03:29;;;;;;;20.77;12.93;;;33.10;69.90;;;;;;4949756;28;20067;-43
2022/08/14 09:05:58;;;;;;;15.43;12.43;;;32.80;69.10;;;;;;4949725;28;20528;-46
2022/08/14 09:08:26;;;;;;;17.83;14.05;;;32.40;69.80;;;;;;4936933;29;20031;-54
2022/08/14 09:10:53;;;;;;;16.90;12.27;;;32.20;69.50;;;;;;4951580;28;20036;-48
2022/08/14 09:13:21;;;;;;;17.35;12.50;;;32.10;69.90;;;;;;4941740;28;20504;-51
2022/08/14 09:15:48;;;;;;;14.02;11.43;;;32.20;69.80;;;;;;4952578;28;20031;-50
2022/08/14 09:18:18;;;;;;;13.55;10.65;;;32.00;70.70;;;;;;4933592;29;20020;-53
2022/08/14 09:20:46;;;;;;;12.18;10.05;;;32.10;70.90;;;;;;4932657;29;20028;-51
2022/08/14 09:23:12;;;;;;;16.70;11.05;;;31.60;69.80;;;;;;4933284;29;20050;-47
2022/08/14 09:25:40;;;;;;;14.45;10.98;;;31.60;70.90;;;;;;4946082;28;20107;-47
2022/08/14 09:28:07;;;;;;;17.98;12.35;;;31.80;72.20;;;;;;4951782;28;20020;-50
2022/08/14 09:30:36;;;;;;;13.20;11.55;;;31.80;70.30;;;;;;4952828;29;20035;-49
2022/08/14 09:33:01;;;;;;;16.92;11.60;;;31.60;70.50;;;;;;4952580;28;20051;-51
2022/08/14 09:35:41;;;;;;;20.48;11.25;;;31.60;70.50;;;;;;4952418;28;20036;-53
2022/08/14 09:38:36;;;;;;;12.10;10.27;;;31.80;70.30;;;;;;4946455;28;20032;-54
2022/08/14 09:41:26;;;;;;;16.90;10.52;;;31.80;69.90;;;;;;4944080;28;20357;-50
2022/08/14 09:44:33;;;;;;;14.63;10.60;;;31.60;68.90;;;;;;4952448;28;20114;-53
2022/08/14 09:46:58;;;;;;;17.67;10.70;;;31.70;69.10;;;;;;4927804;29;20415;-48
2022/08/14 09:49:35;;;;;;;10.60;7.97;;;31.80;69.10;;;;;;4941710;29;20032;-51
2022/08/14 09:52:19;;;;;;;9.13;7.15;;;31.70;68.60;;;;;;4934010;28;20028;-52
2022/08/14 09:54:47;;;;;;;11.50;9.03;;;31.60;68.60;;;;;;4939291;29;20035;-43
2022/08/14 09:57:29;;;;;;;19.67;9.05;;;31.40;69.10;;;;;;4949305;28;20073;-47
2022/08/14 09:59:54;;;;;;;17.83;10.00;;;31.40;69.90;;;;;;4950114;29;20416;-47
2022/08/14 10:02:23;;;;;;;25.10;17.85;;;31.50;69.40;;;;;;4947393;28;20027;-52
2022/08/14 10:05:08;;;;;;;11.27;8.73;;;31.30;69.40;;;;;;4949029;28;20067;-49
2022/08/14 10:07:50;;;;;;;12.25;8.18;;;31.20;69.20;;;;;;4937228;29;20484;-46
2022/08/14 10:10:38;;;;;;;20.90;7.78;;;30.90;69.10;;;;;;4950415;29;20455;-48
2022/08/14 10:13:06;;;;;;;17.10;8.95;;;31.00;69.00;;;;;;4949986;29;20032;-47
2022/08/14 10:15:37;;;;;;;12.32;9.50;;;31.00;69.70;;;;;;4954613;28;20034;-49
2022/08/14 10:18:12;;;;;;;13.25;8.65;;;31.00;69.60;;;;;;4973123;28;20039;-48
2022/08/14 10:20:44;;;;;;;11.98;7.35;;;30.90;68.90;;;;;;4941374;28;20050;-46
2022/08/14 10:23:12;;;;;;;9.07;8.05;;;30.80;68.10;;;;;;4941543;28;20023;-48
2022/08/14 10:25:46;;;;;;;12.50;7.50;;;30.60;68.50;;;;;;4936964;29;20023;-46
2022/08/14 10:28:15;;;;;;;6.32;5.10;;;30.70;68.20;;;;;;4955610;28;20030;-52
2022/08/14 10:30:46;;;;;;;7.45;6.32;;;30.60;67.60;;;;;;4955380;28;20026;-50
2022/08/14 10:33:28;;;;;;;9.63;5.18;;;30.60;68.00;;;;;;4955474;28;20078;-47
2022/08/14 10:35:54;;;;;;;7.95;5.10;;;30.60;67.40;;;;;;4952936;28;20028;-50
2022/08/14 10:38:34;;;;;;;5.32;4.70;;;30.70;67.70;;;;;;4957220;28;20019;-48
2022/08/14 10:41:14;;;;;;;6.85;4.60;;;30.80;67.60;;;;;;4955642;28;20032;-47
2022/08/14 10:43:42;;;;;;;3.80;3.50;;;31.00;67.30;;;;;;4955601;28;20047;-48
2022/08/14 10:46:17;;;;;;;7.00;3.05;;;31.00;66.00;;;;;;4952812;28;20027;-47
2022/08/14 10:49:01;;;;;;;5.75;3.03;;;31.00;64.80;;;;;;4954271;28;20063;-51
2022/08/14 10:51:28;;;;;;;4.60;3.10;;;30.90;64.70;;;;;;4955001;28;20031;-47
2022/08/14 10:53:55;;;;;;;8.48;3.47;;;31.00;65.20;;;;;;4954530;28;20109;-43
2022/08/14 10:56:34;;;;;;;4.20;2.95;;;31.00;66.10;;;;;;4955808;28;20235;-47
2022/08/14 10:59:07;;;;;;;3.97;3.67;;;31.10;66.90;;;;;;4952289;28;20037;-47
2022/08/14 11:01:35;;;;;;;3.53;3.22;;;31.20;65.40;;;;;;4950830;29;20081;-51
2022/08/14 11:04:01;;;;;;;6.72;3.33;;;31.10;65.60;;;;;;4949454;28;20039;-46
2022/08/14 11:06:27;;;;;;;3.03;2.72;;;31.00;65.60;;;;;;4940912;28;20039;-46
2022/08/14 11:08:54;;;;;;;3.05;2.85;;;30.80;64.40;;;;;;4951014;29;20027;-48
2022/08/14 11:11:21;;;;;;;6.22;2.95;;;30.70;63.30;;;;;;4952032;28;20450;-52
2022/08/14 11:13:49;;;;;;;3.20;2.88;;;30.50;64.00;;;;;;4935160;29;20023;-50
2022/08/14 11:16:15;;;;;;;3.20;3.00;;;30.30;64.10;;;;;;4935336;29;20020;-44
2022/08/14 11:18:47;;;;;;;3.40;3.15;;;30.40;64.80;;;;;;4935364;29;20055;-47
2022/08/14 11:21:17;;;;;;;3.63;3.42;;;30.30;65.10;;;;;;4935017;29;20020;-48
2022/08/14 11:23:44;;;;;;;5.88;3.33;;;30.40;64.60;;;;;;4939282;29;20038;-47
2022/08/14 11:26:11;;;;;;;37.58;32.72;;;30.40;64.60;;;;;;4954055;28;20031;-48
2022/08/14 11:28:40;;;;;;;6.22;5.53;;;30.40;64.60;;;;;;4954334;28;20031;-43
2022/08/14 11:31:09;;;;;;;4.25;3.88;;;30.40;65.40;;;;;;4953981;28;20033;-52
2022/08/14 11:33:36;;;;;;;3.85;3.55;;;30.40;65.00;;;;;;4952384;29;20122;-50
2022/08/14 11:36:04;;;;;;;3.22;2.97;;;30.40;63.50;;;;;;4954203;28;20429;-47
2022/08/14 11:38:41;;;;;;;3.38;2.85;;;30.20;64.20;;;;;;4955680;28;20029;-43
2022/08/14 11:41:09;;;;;;;4.75;3.35;;;30.20;65.20;;;;;;4954027;28;20076;-52
2022/08/14 11:43:43;;;;;;;3.65;3.30;;;30.20;64.10;;;;;;4975982;23;20071;-52
2022/08/14 11:46:09;;;;;;;5.88;2.60;;;30.30;63.80;;;;;;4952539;29;20027;-47
2022/08/14 11:48:51;;;;;;;3.22;3.03;;;30.30;63.90;;;;;;4953701;28;20030;-49
2022/08/14 11:51:22;;;;;;;3.58;3.22;;;30.30;63.60;;;;;;4954106;28;20098;-50
2022/08/14 11:53:53;;;;;;;4.05;3.33;;;30.20;64.30;;;;;;4951932;28;20031;-50
2022/08/14 11:56:19;;;;;;;4.07;3.05;;;30.20;64.80;;;;;;4954096;28;20071;-50
2022/08/14 11:58:50;;;;;;;4.53;2.97;;;30.30;63.70;;;;;;4954442;28;20027;-48
2022/08/14 12:01:15;;;;;;;3.80;3.08;;;30.40;63.30;;;;;;4960636;28;20029;-48
2022/08/14 12:03:46;;;;;;;5.53;3.70;;;30.40;64.00;;;;;;4952188;28;20504;-48
2022/08/14 12:06:14;;;;;;;2.75;2.60;;;30.40;64.40;;;;;;4950040;29;20111;-45
2022/08/14 12:08:41;;;;;;;4.30;3.17;;;30.50;65.10;;;;;;4953396;28;20111;-49
2022/08/14 12:11:09;;;;;;;4.03;3.47;;;30.60;64.30;;;;;;4951931;28;20166;-48
2022/08/14 12:13:35;;;;;;;4.45;2.75;;;30.70;62.50;;;;;;4952968;28;20038;-55
2022/08/14 12:16:12;;;;;;;3.30;2.97;;;30.70;63.00;;;;;;4951202;28;20027;-51
2022/08/14 12:18:47;;;;;;;8.02;3.30;;;30.80;62.80;;;;;;4949151;29;20024;-48
2022/08/14 12:21:22;;;;;;;3.05;2.85;;;30.80;62.60;;;;;;4952436;28;20060;-54
2022/08/14 12:24:07;;;;;;;3.22;3.03;;;31.00;62.60;;;;;;4951466;28;20031;-49
2022/08/14 12:26:33;;;;;;;2.92;2.72;;;31.00;62.10;;;;;;4952841;28;20471;-52
2022/08/14 12:29:08;;;;;;;2.50;2.40;;;31.00;62.50;;;;;;4952520;29;20118;-51
2022/08/14 12:31:35;;;;;;;2.83;2.65;;;31.00;62.20;;;;;;4952446;28;20023;-51
2022/08/14 12:34:05;;;;;;;2.75;2.60;;;31.00;63.20;;;;;;4952898;28;20035;-49
2022/08/14 12:36:31;;;;;;;2.95;2.72;;;31.10;63.00;;;;;;4953451;28;20039;-49
2022/08/14 12:38:58;;;;;;;31.05;25.38;;;31.10;62.60;;;;;;4953426;28;20019;-53
2022/08/14 12:41:27;;;;;;;54.13;46.63;;;31.20;62.80;;;;;;4951828;29;20023;-56
2022/08/14 12:44:02;;;;;;;20.67;18.33;;;31.30;62.20;;;;;;4952407;29;20087;-50
2022/08/14 12:46:34;;;;;;;3.17;2.58;;;31.50;61.10;;;;;;4953362;28;20034;-52
2022/08/14 12:49:09;;;;;;;2.90;2.65;;;31.50;61.40;;;;;;4953021;28;20074;-49
2022/08/14 12:51:35;;;;;;;2.95;2.80;;;31.50;60.40;;;;;;4951526;28;20031;-51
2022/08/14 12:54:16;;;;;;;2.60;2.38;;;31.50;60.50;;;;;;4952668;28;20039;-50
2022/08/14 12:56:42;;;;;;;3.33;2.63;;;31.50;60.20;;;;;;4953207;28;20074;-55
2022/08/14 12:59:08;;;;;;;3.00;2.72;;;31.40;60.70;;;;;;4953030;28;20086;-53
2022/08/14 13:01:34;;;;;;;4.18;2.78;;;31.30;61.30;;;;;;4951778;28;20023;-52
2022/08/14 13:04:07;;;;;;;3.85;3.05;;;31.30;61.50;;;;;;4952686;28;20031;-51